sensor_id;sensor_type;location;lat;lon;timestamp;P1;durP1;ratioP1;P2;durP2;ratioP2
75012;SDS011;63567;49.956;20.130;2024-01-16T00:01:25;5.53;;;2.70;;
75012;SDS011;63567;49.956;20.130;2024-01-16T00:03:51;7.23;;;3.00;;
75012;SDS011;63567;49.956;20.130;2024-01-16T00:06:16;6.73;;;3.27;;
75012;SDS011;63567;49.956;20.130;2024-01-16T00:08:41;4.73;;;2.50;;
75012;SDS011;63567;49.956;20.130;2024-01-16T00:11:07;5.23;;;2.53;;
75012;SDS011;63567;49.956;20.130;2024-01-16T00:13:32;7.00;;;3.23;;
75012;SDS011;63567;49.956;20.130;2024-01-16T00:15:58;6.75;;;3.20;;
75012;SDS011;63567;49.956;20.130;2024-01-16T00:18:23;4.93;;;2.80;;
75012;SDS011;63567;49.956;20.130;2024-01-16T00:20:48;5.77;;;2.70;;
75012;SDS011;63567;49.956;20.130;2024-01-16T00:23:14;4.65;;;2.70;;
75012;SDS011;63567;49.956;20.130;2024-01-16T00:25:39;5.35;;;2.63;;
75012;SDS011;63567;49.956;20.130;2024-01-16T00:28:05;4.88;;;2.60;;
75012;SDS011;63567;49.956;20.130;2024-01-16T00:30:30;5.75;;;2.75;;
75012;SDS011;63567;49.956;20.130;2024-01-16T00:32:56;6.63;;;2.80;;
75012;SDS011;63567;49.956;20.130;2024-01-16T00:35:21;5.17;;;2.43;;
75012;SDS011;63567;49.956;20.130;2024-01-16T00:37:47;5.23;;;2.57;;
75012;SDS011;63567;49.956;20.130;2024-01-16T00:40:12;5.37;;;2.63;;
75012;SDS011;63567;49.956;20.130;2024-01-16T00:42:37;5.53;;;2.23;;
75012;SDS011;63567;49.956;20.130;2024-01-16T00:45:03;5.07;;;2.70;;
75012;SDS011;63567;49.956;20.130;2024-01-16T00:47:29;4.50;;;2.45;;
75012;SDS011;63567;49.956;20.130;2024-01-16T00:49:54;4.45;;;2.25;;
75012;SDS011;63567;49.956;20.130;2024-01-16T00:52:20;5.37;;;2.70;;
75012;SDS011;63567;49.956;20.130;2024-01-16T00:54:45;6.50;;;2.83;;
75012;SDS011;63567;49.956;20.130;2024-01-16T00:57:10;4.50;;;2.67;;
75012;SDS011;63567;49.956;20.130;2024-01-16T00:59:36;6.33;;;2.40;;
75012;SDS011;63567;49.956;20.130;2024-01-16T01:02:02;4.82;;;2.50;;
75012;SDS011;63567;49.956;20.130;2024-01-16T01:04:28;4.03;;;2.40;;
75012;SDS011;63567;49.956;20.130;2024-01-16T01:06:54;4.03;;;2.30;;
75012;SDS011;63567;49.956;20.130;2024-01-16T01:09:19;5.27;;;2.50;;
75012;SDS011;63567;49.956;20.130;2024-01-16T01:11:44;5.45;;;2.40;;
75012;SDS011;63567;49.956;20.130;2024-01-16T01:14:10;4.90;;;2.47;;
75012;SDS011;63567;49.956;20.130;2024-01-16T01:16:35;5.13;;;2.33;;
75012;SDS011;63567;49.956;20.130;2024-01-16T01:19:00;5.63;;;2.70;;
75012;SDS011;63567;49.956;20.130;2024-01-16T01:21:26;5.55;;;2.30;;
75012;SDS011;63567;49.956;20.130;2024-01-16T01:23:52;6.13;;;2.58;;
75012;SDS011;63567;49.956;20.130;2024-01-16T01:26:17;4.95;;;2.67;;
75012;SDS011;63567;49.956;20.130;2024-01-16T01:28:45;4.70;;;2.35;;
75012;SDS011;63567;49.956;20.130;2024-01-16T01:31:11;5.93;;;2.53;;
75012;SDS011;63567;49.956;20.130;2024-01-16T01:33:37;5.80;;;2.88;;
75012;SDS011;63567;49.956;20.130;2024-01-16T01:36:02;6.15;;;2.97;;
75012;SDS011;63567;49.956;20.130;2024-01-16T01:38:28;5.55;;;2.80;;
75012;SDS011;63567;49.956;20.130;2024-01-16T01:40:53;5.97;;;2.70;;
75012;SDS011;63567;49.956;20.130;2024-01-16T01:45:47;5.13;;;2.70;;
75012;SDS011;63567;49.956;20.130;2024-01-16T01:48:18;6.70;;;3.05;;
75012;SDS011;63567;49.956;20.130;2024-01-16T01:50:44;5.93;;;2.90;;
75012;SDS011;63567;49.956;20.130;2024-01-16T01:53:09;6.28;;;2.72;;
75012;SDS011;63567;49.956;20.130;2024-01-16T01:55:35;6.07;;;3.20;;
75012;SDS011;63567;49.956;20.130;2024-01-16T01:58:00;6.47;;;2.93;;
75012;SDS011;63567;49.956;20.130;2024-01-16T02:00:29;6.50;;;3.10;;
75012;SDS011;63567;49.956;20.130;2024-01-16T02:02:55;6.00;;;2.80;;
75012;SDS011;63567;49.956;20.130;2024-01-16T02:05:20;4.95;;;3.05;;
75012;SDS011;63567;49.956;20.130;2024-01-16T02:07:46;5.75;;;2.90;;
75012;SDS011;63567;49.956;20.130;2024-01-16T02:10:11;6.15;;;2.55;;
75012;SDS011;63567;49.956;20.130;2024-01-16T02:12:36;6.20;;;3.07;;
75012;SDS011;63567;49.956;20.130;2024-01-16T02:15:02;5.70;;;2.90;;
75012;SDS011;63567;49.956;20.130;2024-01-16T02:17:28;6.60;;;3.47;;
75012;SDS011;63567;49.956;20.130;2024-01-16T02:19:53;5.10;;;2.70;;
75012;SDS011;63567;49.956;20.130;2024-01-16T02:22:19;4.97;;;2.90;;
75012;SDS011;63567;49.956;20.130;2024-01-16T02:24:47;5.35;;;3.13;;
75012;SDS011;63567;49.956;20.130;2024-01-16T02:27:13;5.38;;;3.08;;
75012;SDS011;63567;49.956;20.130;2024-01-16T02:29:41;5.90;;;2.80;;
75012;SDS011;63567;49.956;20.130;2024-01-16T02:32:11;5.55;;;2.72;;
75012;SDS011;63567;49.956;20.130;2024-01-16T02:34:37;5.13;;;2.63;;
75012;SDS011;63567;49.956;20.130;2024-01-16T02:37:03;5.82;;;3.10;;
75012;SDS011;63567;49.956;20.130;2024-01-16T02:39:29;5.05;;;2.53;;
75012;SDS011;63567;49.956;20.130;2024-01-16T02:41:54;5.78;;;2.67;;
75012;SDS011;63567;49.956;20.130;2024-01-16T02:44:19;4.80;;;2.67;;
75012;SDS011;63567;49.956;20.130;2024-01-16T02:46:45;5.87;;;3.00;;
75012;SDS011;63567;49.956;20.130;2024-01-16T02:49:10;5.40;;;2.60;;
75012;SDS011;63567;49.956;20.130;2024-01-16T02:51:35;5.73;;;2.80;;
75012;SDS011;63567;49.956;20.130;2024-01-16T02:54:01;4.93;;;2.87;;
75012;SDS011;63567;49.956;20.130;2024-01-16T02:56:26;6.47;;;2.80;;
75012;SDS011;63567;49.956;20.130;2024-01-16T02:58:51;6.47;;;2.88;;
75012;SDS011;63567;49.956;20.130;2024-01-16T03:01:17;6.07;;;3.00;;
75012;SDS011;63567;49.956;20.130;2024-01-16T03:03:42;6.28;;;2.92;;
75012;SDS011;63567;49.956;20.130;2024-01-16T03:06:08;6.00;;;2.80;;
75012;SDS011;63567;49.956;20.130;2024-01-16T03:08:33;5.18;;;2.90;;
75012;SDS011;63567;49.956;20.130;2024-01-16T03:10:59;6.67;;;2.93;;
75012;SDS011;63567;49.956;20.130;2024-01-16T03:13:24;6.57;;;3.20;;
75012;SDS011;63567;49.956;20.130;2024-01-16T03:15:49;5.73;;;2.97;;
75012;SDS011;63567;49.956;20.130;2024-01-16T03:18:15;4.72;;;2.80;;
75012;SDS011;63567;49.956;20.130;2024-01-16T03:20:42;6.10;;;2.67;;
75012;SDS011;63567;49.956;20.130;2024-01-16T03:23:08;6.35;;;2.88;;
75012;SDS011;63567;49.956;20.130;2024-01-16T03:25:33;5.88;;;3.10;;
75012;SDS011;63567;49.956;20.130;2024-01-16T03:28:03;5.88;;;2.60;;
75012;SDS011;63567;49.956;20.130;2024-01-16T03:30:29;5.45;;;2.78;;
75012;SDS011;63567;49.956;20.130;2024-01-16T03:32:54;5.70;;;2.83;;
75012;SDS011;63567;49.956;20.130;2024-01-16T03:35:20;4.73;;;2.40;;
75012;SDS011;63567;49.956;20.130;2024-01-16T03:37:45;4.23;;;2.60;;
75012;SDS011;63567;49.956;20.130;2024-01-16T03:40:10;5.77;;;2.90;;
75012;SDS011;63567;49.956;20.130;2024-01-16T03:42:37;5.57;;;2.70;;
75012;SDS011;63567;49.956;20.130;2024-01-16T03:45:03;4.55;;;2.53;;
75012;SDS011;63567;49.956;20.130;2024-01-16T03:47:28;5.70;;;2.63;;
75012;SDS011;63567;49.956;20.130;2024-01-16T03:49:54;5.93;;;3.23;;
75012;SDS011;63567;49.956;20.130;2024-01-16T03:52:19;5.77;;;2.60;;
75012;SDS011;63567;49.956;20.130;2024-01-16T03:54:44;6.57;;;2.83;;
75012;SDS011;63567;49.956;20.130;2024-01-16T03:57:09;4.93;;;2.80;;
75012;SDS011;63567;49.956;20.130;2024-01-16T03:59:36;5.63;;;2.83;;
75012;SDS011;63567;49.956;20.130;2024-01-16T04:02:02;6.00;;;2.40;;
75012;SDS011;63567;49.956;20.130;2024-01-16T04:04:28;5.07;;;2.78;;
75012;SDS011;63567;49.956;20.130;2024-01-16T04:06:53;4.90;;;2.70;;
75012;SDS011;63567;49.956;20.130;2024-01-16T04:09:19;5.00;;;2.60;;
75012;SDS011;63567;49.956;20.130;2024-01-16T04:11:44;5.85;;;2.85;;
75012;SDS011;63567;49.956;20.130;2024-01-16T04:14:12;8.50;;;3.33;;
75012;SDS011;63567;49.956;20.130;2024-01-16T04:16:37;8.40;;;3.80;;
75012;SDS011;63567;49.956;20.130;2024-01-16T04:19:03;8.97;;;4.07;;
75012;SDS011;63567;49.956;20.130;2024-01-16T04:21:28;9.50;;;3.85;;
75012;SDS011;63567;49.956;20.130;2024-01-16T04:23:53;6.70;;;3.25;;
75012;SDS011;63567;49.956;20.130;2024-01-16T04:26:19;6.50;;;3.03;;
75012;SDS011;63567;49.956;20.130;2024-01-16T04:28:44;4.87;;;2.50;;
75012;SDS011;63567;49.956;20.130;2024-01-16T04:31:09;5.10;;;2.37;;
75012;SDS011;63567;49.956;20.130;2024-01-16T04:33:36;6.55;;;3.28;;
75012;SDS011;63567;49.956;20.130;2024-01-16T04:36:02;6.22;;;3.10;;
75012;SDS011;63567;49.956;20.130;2024-01-16T04:38:27;4.60;;;2.70;;
75012;SDS011;63567;49.956;20.130;2024-01-16T04:40:53;5.83;;;2.67;;
75012;SDS011;63567;49.956;20.130;2024-01-16T04:43:18;5.67;;;3.20;;
75012;SDS011;63567;49.956;20.130;2024-01-16T04:45:43;4.60;;;2.80;;
75012;SDS011;63567;49.956;20.130;2024-01-16T04:48:09;6.05;;;3.17;;
75012;SDS011;63567;49.956;20.130;2024-01-16T04:50:34;6.43;;;3.72;;
75012;SDS011;63567;49.956;20.130;2024-01-16T04:53:00;8.07;;;3.88;;
75012;SDS011;63567;49.956;20.130;2024-01-16T04:55:27;7.10;;;3.22;;
75012;SDS011;63567;49.956;20.130;2024-01-16T04:57:54;6.57;;;2.95;;
75012;SDS011;63567;49.956;20.130;2024-01-16T05:00:19;5.32;;;2.45;;
75012;SDS011;63567;49.956;20.130;2024-01-16T05:02:45;4.20;;;2.38;;
75012;SDS011;63567;49.956;20.130;2024-01-16T05:05:11;5.60;;;2.25;;
75012;SDS011;63567;49.956;20.130;2024-01-16T05:07:37;5.00;;;2.28;;
75012;SDS011;63567;49.956;20.130;2024-01-16T05:10:02;4.17;;;1.90;;
75012;SDS011;63567;49.956;20.130;2024-01-16T05:12:28;3.78;;;2.00;;
75012;SDS011;63567;49.956;20.130;2024-01-16T05:14:53;4.40;;;2.03;;
75012;SDS011;63567;49.956;20.130;2024-01-16T05:17:18;4.33;;;2.10;;
75012;SDS011;63567;49.956;20.130;2024-01-16T05:19:44;3.87;;;1.87;;
75012;SDS011;63567;49.956;20.130;2024-01-16T05:22:12;4.63;;;2.07;;
75012;SDS011;63567;49.956;20.130;2024-01-16T05:24:37;4.85;;;1.85;;
75012;SDS011;63567;49.956;20.130;2024-01-16T05:27:03;4.63;;;2.23;;
75012;SDS011;63567;49.956;20.130;2024-01-16T05:29:29;3.42;;;2.00;;
75012;SDS011;63567;49.956;20.130;2024-01-16T05:31:56;5.03;;;2.42;;
75012;SDS011;63567;49.956;20.130;2024-01-16T05:34:21;4.40;;;2.40;;
75012;SDS011;63567;49.956;20.130;2024-01-16T05:36:46;3.33;;;2.07;;
75012;SDS011;63567;49.956;20.130;2024-01-16T05:39:11;4.60;;;2.20;;
75012;SDS011;63567;49.956;20.130;2024-01-16T05:41:37;5.37;;;2.60;;
75012;SDS011;63567;49.956;20.130;2024-01-16T05:44:02;4.15;;;1.98;;
75012;SDS011;63567;49.956;20.130;2024-01-16T05:46:29;5.13;;;2.25;;
75012;SDS011;63567;49.956;20.130;2024-01-16T05:48:56;5.88;;;2.40;;
75012;SDS011;63567;49.956;20.130;2024-01-16T05:51:21;4.37;;;2.37;;
75012;SDS011;63567;49.956;20.130;2024-01-16T05:53:46;4.80;;;2.23;;
75012;SDS011;63567;49.956;20.130;2024-01-16T05:56:11;3.70;;;2.23;;
75012;SDS011;63567;49.956;20.130;2024-01-16T05:58:37;4.60;;;2.30;;
75012;SDS011;63567;49.956;20.130;2024-01-16T06:01:04;4.20;;;2.60;;
75012;SDS011;63567;49.956;20.130;2024-01-16T06:03:29;4.20;;;2.40;;
75012;SDS011;63567;49.956;20.130;2024-01-16T06:05:55;4.87;;;2.57;;
75012;SDS011;63567;49.956;20.130;2024-01-16T06:08:20;4.80;;;2.40;;
75012;SDS011;63567;49.956;20.130;2024-01-16T06:10:45;5.13;;;2.33;;
75012;SDS011;63567;49.956;20.130;2024-01-16T06:13:10;4.23;;;2.47;;
75012;SDS011;63567;49.956;20.130;2024-01-16T06:15:36;4.73;;;2.47;;
75012;SDS011;63567;49.956;20.130;2024-01-16T06:18:01;4.50;;;2.30;;
75012;SDS011;63567;49.956;20.130;2024-01-16T06:20:26;4.03;;;2.20;;
75012;SDS011;63567;49.956;20.130;2024-01-16T06:22:53;4.90;;;2.63;;
75012;SDS011;63567;49.956;20.130;2024-01-16T06:25:18;4.53;;;2.50;;
75012;SDS011;63567;49.956;20.130;2024-01-16T06:27:44;5.17;;;2.60;;
75012;SDS011;63567;49.956;20.130;2024-01-16T06:30:10;5.60;;;2.65;;
75012;SDS011;63567;49.956;20.130;2024-01-16T06:32:35;4.18;;;2.50;;
75012;SDS011;63567;49.956;20.130;2024-01-16T06:35:01;4.37;;;2.60;;
75012;SDS011;63567;49.956;20.130;2024-01-16T06:37:26;6.13;;;2.60;;
75012;SDS011;63567;49.956;20.130;2024-01-16T06:39:52;3.85;;;2.40;;
75012;SDS011;63567;49.956;20.130;2024-01-16T06:42:17;5.23;;;2.97;;
75012;SDS011;63567;49.956;20.130;2024-01-16T06:44:42;5.63;;;2.77;;
75012;SDS011;63567;49.956;20.130;2024-01-16T06:47:07;4.20;;;2.43;;
75012;SDS011;63567;49.956;20.130;2024-01-16T06:49:33;4.97;;;2.40;;
75012;SDS011;63567;49.956;20.130;2024-01-16T06:51:58;5.40;;;2.83;;
75012;SDS011;63567;49.956;20.130;2024-01-16T06:54:23;5.27;;;3.00;;
75012;SDS011;63567;49.956;20.130;2024-01-16T06:56:49;5.67;;;2.60;;
75012;SDS011;63567;49.956;20.130;2024-01-16T06:59:14;4.30;;;2.40;;
75012;SDS011;63567;49.956;20.130;2024-01-16T07:01:41;5.07;;;2.53;;
75012;SDS011;63567;49.956;20.130;2024-01-16T07:04:06;5.43;;;3.30;;
75012;SDS011;63567;49.956;20.130;2024-01-16T07:06:31;6.10;;;3.10;;
75012;SDS011;63567;49.956;20.130;2024-01-16T07:08:56;7.10;;;3.30;;
75012;SDS011;63567;49.956;20.130;2024-01-16T07:11:22;8.20;;;3.20;;
75012;SDS011;63567;49.956;20.130;2024-01-16T07:13:47;4.90;;;2.70;;
75012;SDS011;63567;49.956;20.130;2024-01-16T07:16:13;6.18;;;3.30;;
75012;SDS011;63567;49.956;20.130;2024-01-16T07:18:39;5.75;;;2.85;;
75012;SDS011;63567;49.956;20.130;2024-01-16T07:21:06;5.63;;;3.25;;
75012;SDS011;63567;49.956;20.130;2024-01-16T07:26:06;5.90;;;2.90;;
75012;SDS011;63567;49.956;20.130;2024-01-16T07:28:32;5.40;;;2.88;;
75012;SDS011;63567;49.956;20.130;2024-01-16T07:30:57;4.93;;;2.90;;
75012;SDS011;63567;49.956;20.130;2024-01-16T07:33:23;6.73;;;3.67;;
75012;SDS011;63567;49.956;20.130;2024-01-16T07:35:48;5.53;;;3.57;;
75012;SDS011;63567;49.956;20.130;2024-01-16T07:38:14;5.68;;;2.88;;
75012;SDS011;63567;49.956;20.130;2024-01-16T07:40:39;6.70;;;2.87;;
75012;SDS011;63567;49.956;20.130;2024-01-16T07:43:04;6.77;;;3.60;;
75012;SDS011;63567;49.956;20.130;2024-01-16T07:45:29;5.53;;;3.07;;
75012;SDS011;63567;49.956;20.130;2024-01-16T07:47:55;5.97;;;2.87;;
75012;SDS011;63567;49.956;20.130;2024-01-16T07:50:20;6.20;;;3.40;;
75012;SDS011;63567;49.956;20.130;2024-01-16T07:52:45;5.77;;;3.53;;
75012;SDS011;63567;49.956;20.130;2024-01-16T07:55:10;5.07;;;2.53;;
75012;SDS011;63567;49.956;20.130;2024-01-16T07:57:36;5.60;;;2.70;;
75012;SDS011;63567;49.956;20.130;2024-01-16T08:00:01;5.07;;;2.87;;
75012;SDS011;63567;49.956;20.130;2024-01-16T08:02:31;6.85;;;3.45;;
75012;SDS011;63567;49.956;20.130;2024-01-16T08:04:58;5.93;;;2.97;;
75012;SDS011;63567;49.956;20.130;2024-01-16T08:07:24;7.00;;;3.43;;
75012;SDS011;63567;49.956;20.130;2024-01-16T08:09:49;6.27;;;3.60;;
75012;SDS011;63567;49.956;20.130;2024-01-16T08:12:15;5.80;;;2.90;;
75012;SDS011;63567;49.956;20.130;2024-01-16T08:14:40;4.60;;;2.90;;
75012;SDS011;63567;49.956;20.130;2024-01-16T08:17:05;6.63;;;3.10;;
75012;SDS011;63567;49.956;20.130;2024-01-16T08:19:31;7.30;;;3.47;;
75012;SDS011;63567;49.956;20.130;2024-01-16T08:21:57;6.10;;;3.10;;
75012;SDS011;63567;49.956;20.130;2024-01-16T08:24:22;7.00;;;3.40;;
75012;SDS011;63567;49.956;20.130;2024-01-16T08:26:48;5.53;;;3.00;;
75012;SDS011;63567;49.956;20.130;2024-01-16T08:29:13;5.80;;;3.13;;
75012;SDS011;63567;49.956;20.130;2024-01-16T08:31:38;7.17;;;3.47;;
75012;SDS011;63567;49.956;20.130;2024-01-16T08:34:04;5.03;;;2.80;;
75012;SDS011;63567;49.956;20.130;2024-01-16T08:36:29;5.50;;;2.70;;
75012;SDS011;63567;49.956;20.130;2024-01-16T08:38:54;6.77;;;3.13;;
75012;SDS011;63567;49.956;20.130;2024-01-16T08:41:20;6.13;;;3.00;;
75012;SDS011;63567;49.956;20.130;2024-01-16T08:43:45;4.83;;;2.63;;
75012;SDS011;63567;49.956;20.130;2024-01-16T08:46:10;5.93;;;2.90;;
75012;SDS011;63567;49.956;20.130;2024-01-16T08:48:36;6.57;;;3.00;;
75012;SDS011;63567;49.956;20.130;2024-01-16T08:51:03;6.00;;;2.73;;
75012;SDS011;63567;49.956;20.130;2024-01-16T08:53:32;6.05;;;2.58;;
75012;SDS011;63567;49.956;20.130;2024-01-16T08:55:59;5.60;;;2.63;;
75012;SDS011;63567;49.956;20.130;2024-01-16T08:58:24;4.40;;;2.27;;
75012;SDS011;63567;49.956;20.130;2024-01-16T09:00:49;5.67;;;2.90;;
75012;SDS011;63567;49.956;20.130;2024-01-16T09:03:15;6.50;;;2.60;;
75012;SDS011;63567;49.956;20.130;2024-01-16T09:05:41;6.63;;;2.72;;
75012;SDS011;63567;49.956;20.130;2024-01-16T09:08:08;5.28;;;2.30;;
75012;SDS011;63567;49.956;20.130;2024-01-16T09:10:33;5.75;;;2.53;;
75012;SDS011;63567;49.956;20.130;2024-01-16T09:12:58;4.67;;;2.50;;
75012;SDS011;63567;49.956;20.130;2024-01-16T09:15:24;4.38;;;2.40;;
75012;SDS011;63567;49.956;20.130;2024-01-16T09:17:49;6.05;;;2.78;;
75012;SDS011;63567;49.956;20.130;2024-01-16T09:20:15;6.57;;;2.97;;
75012;SDS011;63567;49.956;20.130;2024-01-16T09:22:40;5.83;;;2.80;;
75012;SDS011;63567;49.956;20.130;2024-01-16T09:25:05;5.37;;;2.43;;
75012;SDS011;63567;49.956;20.130;2024-01-16T09:27:31;5.90;;;2.42;;
75012;SDS011;63567;49.956;20.130;2024-01-16T09:29:56;4.87;;;2.60;;
75012;SDS011;63567;49.956;20.130;2024-01-16T09:32:21;5.43;;;2.20;;
75012;SDS011;63567;49.956;20.130;2024-01-16T09:34:47;8.00;;;2.80;;
75012;SDS011;63567;49.956;20.130;2024-01-16T09:37:12;4.67;;;2.37;;
75012;SDS011;63567;49.956;20.130;2024-01-16T09:39:39;6.78;;;2.58;;
75012;SDS011;63567;49.956;20.130;2024-01-16T09:42:08;4.55;;;2.53;;
75012;SDS011;63567;49.956;20.130;2024-01-16T09:44:33;6.27;;;2.90;;
75012;SDS011;63567;49.956;20.130;2024-01-16T09:46:59;5.00;;;2.42;;
75012;SDS011;63567;49.956;20.130;2024-01-16T09:49:26;5.32;;;2.10;;
75012;SDS011;63567;49.956;20.130;2024-01-16T09:51:54;4.93;;;1.85;;
75012;SDS011;63567;49.956;20.130;2024-01-16T09:54:19;3.60;;;1.77;;
75012;SDS011;63567;49.956;20.130;2024-01-16T09:56:44;3.97;;;2.03;;
75012;SDS011;63567;49.956;20.130;2024-01-16T09:59:17;3.67;;;1.70;;
75012;SDS011;63567;49.956;20.130;2024-01-16T10:01:45;3.60;;;1.65;;
75012;SDS011;63567;49.956;20.130;2024-01-16T10:04:11;3.33;;;1.50;;
75012;SDS011;63567;49.956;20.130;2024-01-16T10:06:36;3.97;;;1.67;;
75012;SDS011;63567;49.956;20.130;2024-01-16T10:09:04;4.57;;;2.10;;
75012;SDS011;63567;49.956;20.130;2024-01-16T10:11:29;3.10;;;1.40;;
75012;SDS011;63567;49.956;20.130;2024-01-16T10:13:56;4.45;;;1.95;;
75012;SDS011;63567;49.956;20.130;2024-01-16T10:16:23;5.22;;;2.58;;
75012;SDS011;63567;49.956;20.130;2024-01-16T10:19:09;4.25;;;1.60;;
75012;SDS011;63567;49.956;20.130;2024-01-16T10:21:34;3.70;;;1.53;;
75012;SDS011;63567;49.956;20.130;2024-01-16T10:24:10;2.63;;;1.15;;
75012;SDS011;63567;49.956;20.130;2024-01-16T10:26:36;2.78;;;1.40;;
75012;SDS011;63567;49.956;20.130;2024-01-16T10:29:02;4.03;;;1.30;;
75012;SDS011;63567;49.956;20.130;2024-01-16T10:31:29;3.42;;;1.40;;
75012;SDS011;63567;49.956;20.130;2024-01-16T10:33:56;3.45;;;1.20;;
75012;SDS011;63567;49.956;20.130;2024-01-16T10:36:23;3.50;;;1.27;;
75012;SDS011;63567;49.956;20.130;2024-01-16T10:38:50;3.20;;;1.42;;
75012;SDS011;63567;49.956;20.130;2024-01-16T10:41:22;3.17;;;1.35;;
75012;SDS011;63567;49.956;20.130;2024-01-16T10:43:50;3.17;;;1.42;;
75012;SDS011;63567;49.956;20.130;2024-01-16T10:46:28;3.00;;;1.55;;
75012;SDS011;63567;49.956;20.130;2024-01-16T10:49:00;3.37;;;1.50;;
75012;SDS011;63567;49.956;20.130;2024-01-16T10:51:29;2.50;;;1.27;;
75012;SDS011;63567;49.956;20.130;2024-01-16T10:53:59;2.90;;;1.17;;
75012;SDS011;63567;49.956;20.130;2024-01-16T10:56:28;3.50;;;1.40;;
75012;SDS011;63567;49.956;20.130;2024-01-16T10:58:58;3.60;;;1.30;;
75012;SDS011;63567;49.956;20.130;2024-01-16T11:01:50;3.72;;;1.40;;
75012;SDS011;63567;49.956;20.130;2024-01-16T11:04:20;3.60;;;1.50;;
75012;SDS011;63567;49.956;20.130;2024-01-16T11:06:45;4.18;;;1.40;;
75012;SDS011;63567;49.956;20.130;2024-01-16T11:09:16;3.50;;;1.50;;
75012;SDS011;63567;49.956;20.130;2024-01-16T11:11:44;3.03;;;1.40;;
75012;SDS011;63567;49.956;20.130;2024-01-16T11:14:11;3.53;;;1.42;;
75012;SDS011;63567;49.956;20.130;2024-01-16T11:16:38;3.40;;;1.40;;
75012;SDS011;63567;49.956;20.130;2024-01-16T11:19:04;2.95;;;1.45;;
75012;SDS011;63567;49.956;20.130;2024-01-16T11:21:33;3.17;;;1.48;;
75012;SDS011;63567;49.956;20.130;2024-01-16T11:23:59;4.05;;;1.40;;
75012;SDS011;63567;49.956;20.130;2024-01-16T11:26:28;4.20;;;1.77;;
75012;SDS011;63567;49.956;20.130;2024-01-16T11:29:02;4.28;;;1.52;;
75012;SDS011;63567;49.956;20.130;2024-01-16T11:31:52;3.13;;;1.60;;
75012;SDS011;63567;49.956;20.130;2024-01-16T11:37:14;2.95;;;1.45;;
75012;SDS011;63567;49.956;20.130;2024-01-16T11:39:40;4.07;;;1.48;;
75012;SDS011;63567;49.956;20.130;2024-01-16T11:42:05;2.67;;;1.30;;
75012;SDS011;63567;49.956;20.130;2024-01-16T11:44:46;3.47;;;1.58;;
75012;SDS011;63567;49.956;20.130;2024-01-16T11:47:19;4.57;;;1.60;;
75012;SDS011;63567;49.956;20.130;2024-01-16T11:49:46;4.13;;;1.40;;
75012;SDS011;63567;49.956;20.130;2024-01-16T11:52:12;4.13;;;1.77;;
75012;SDS011;63567;49.956;20.130;2024-01-16T11:54:38;3.65;;;1.55;;
75012;SDS011;63567;49.956;20.130;2024-01-16T12:00:27;2.90;;;1.20;;
75012;SDS011;63567;49.956;20.130;2024-01-16T12:02:56;3.95;;;1.52;;
75012;SDS011;63567;49.956;20.130;2024-01-16T12:05:22;3.17;;;1.65;;
75012;SDS011;63567;49.956;20.130;2024-01-16T12:07:48;3.97;;;1.80;;
75012;SDS011;63567;49.956;20.130;2024-01-16T12:12:44;3.35;;;1.67;;
75012;SDS011;63567;49.956;20.130;2024-01-16T12:15:16;3.42;;;1.48;;
75012;SDS011;63567;49.956;20.130;2024-01-16T12:17:55;4.20;;;2.30;;
75012;SDS011;63567;49.956;20.130;2024-01-16T12:20:25;3.03;;;1.42;;
75012;SDS011;63567;49.956;20.130;2024-01-16T12:23:02;3.70;;;1.60;;
75012;SDS011;63567;49.956;20.130;2024-01-16T12:25:29;4.18;;;1.90;;
75012;SDS011;63567;49.956;20.130;2024-01-16T12:30:25;4.05;;;1.73;;
75012;SDS011;63567;49.956;20.130;2024-01-16T12:32:53;3.92;;;1.90;;
75012;SDS011;63567;49.956;20.130;2024-01-16T12:35:27;4.47;;;1.77;;
75012;SDS011;63567;49.956;20.130;2024-01-16T12:37:59;4.07;;;2.00;;
75012;SDS011;63567;49.956;20.130;2024-01-16T12:40:25;5.05;;;2.53;;
75012;SDS011;63567;49.956;20.130;2024-01-16T12:42:51;3.47;;;1.90;;
75012;SDS011;63567;49.956;20.130;2024-01-16T12:45:18;5.90;;;2.20;;
75012;SDS011;63567;49.956;20.130;2024-01-16T12:47:49;4.00;;;2.00;;
75012;SDS011;63567;49.956;20.130;2024-01-16T12:50:20;4.55;;;1.92;;
75012;SDS011;63567;49.956;20.130;2024-01-16T12:52:47;3.70;;;2.15;;
75012;SDS011;63567;49.956;20.130;2024-01-16T12:55:14;4.07;;;2.20;;
75012;SDS011;63567;49.956;20.130;2024-01-16T12:57:39;5.17;;;2.60;;
75012;SDS011;63567;49.956;20.130;2024-01-16T13:00:21;5.20;;;2.20;;
75012;SDS011;63567;49.956;20.130;2024-01-16T13:02:50;4.50;;;2.22;;
75012;SDS011;63567;49.956;20.130;2024-01-16T13:05:17;5.07;;;2.05;;
75012;SDS011;63567;49.956;20.130;2024-01-16T13:07:43;2.72;;;1.70;;
75012;SDS011;63567;49.956;20.130;2024-01-16T13:10:12;4.13;;;1.98;;
75012;SDS011;63567;49.956;20.130;2024-01-16T13:12:41;3.95;;;1.95;;
75012;SDS011;63567;49.956;20.130;2024-01-16T13:15:07;4.60;;;1.92;;
75012;SDS011;63567;49.956;20.130;2024-01-16T13:17:33;3.13;;;1.75;;
75012;SDS011;63567;49.956;20.130;2024-01-16T13:19:59;4.88;;;2.28;;
75012;SDS011;63567;49.956;20.130;2024-01-16T13:22:25;4.03;;;2.17;;
75012;SDS011;63567;49.956;20.130;2024-01-16T13:24:51;3.55;;;1.90;;
75012;SDS011;63567;49.956;20.130;2024-01-16T13:27:16;6.13;;;2.40;;
75012;SDS011;63567;49.956;20.130;2024-01-16T13:29:41;5.83;;;3.00;;
75012;SDS011;63567;49.956;20.130;2024-01-16T13:32:06;3.70;;;2.00;;
75012;SDS011;63567;49.956;20.130;2024-01-16T13:34:32;3.93;;;2.23;;
75012;SDS011;63567;49.956;20.130;2024-01-16T13:36:58;4.47;;;2.30;;
75012;SDS011;63567;49.956;20.130;2024-01-16T13:39:26;4.95;;;2.47;;
75012;SDS011;63567;49.956;20.130;2024-01-16T13:41:52;4.70;;;2.30;;
75012;SDS011;63567;49.956;20.130;2024-01-16T13:44:17;5.28;;;2.65;;
75012;SDS011;63567;49.956;20.130;2024-01-16T13:46:43;4.77;;;2.37;;
75012;SDS011;63567;49.956;20.130;2024-01-16T13:49:09;6.70;;;3.08;;
75012;SDS011;63567;49.956;20.130;2024-01-16T13:51:34;4.60;;;2.42;;
75012;SDS011;63567;49.956;20.130;2024-01-16T13:54:00;5.30;;;2.63;;
75012;SDS011;63567;49.956;20.130;2024-01-16T13:56:25;4.30;;;2.03;;
75012;SDS011;63567;49.956;20.130;2024-01-16T13:58:51;4.22;;;2.05;;
75012;SDS011;63567;49.956;20.130;2024-01-16T14:01:16;4.20;;;2.30;;
75012;SDS011;63567;49.956;20.130;2024-01-16T14:03:41;6.28;;;2.58;;
75012;SDS011;63567;49.956;20.130;2024-01-16T14:06:08;8.30;;;3.03;;
75012;SDS011;63567;49.956;20.130;2024-01-16T14:08:33;5.57;;;3.20;;
75012;SDS011;63567;49.956;20.130;2024-01-16T14:10:58;4.43;;;2.50;;
75012;SDS011;63567;49.956;20.130;2024-01-16T14:13:23;5.47;;;2.70;;
75012;SDS011;63567;49.956;20.130;2024-01-16T14:15:50;6.95;;;2.83;;
75012;SDS011;63567;49.956;20.130;2024-01-16T14:18:16;7.75;;;2.80;;
75012;SDS011;63567;49.956;20.130;2024-01-16T14:20:41;6.67;;;3.23;;
75012;SDS011;63567;49.956;20.130;2024-01-16T14:23:06;6.70;;;3.40;;
75012;SDS011;63567;49.956;20.130;2024-01-16T14:25:32;5.70;;;3.20;;
75012;SDS011;63567;49.956;20.130;2024-01-16T14:28:01;8.63;;;3.30;;
75012;SDS011;63567;49.956;20.130;2024-01-16T14:30:34;6.22;;;3.17;;
75012;SDS011;63567;49.956;20.130;2024-01-16T14:33:00;6.13;;;2.97;;
75012;SDS011;63567;49.956;20.130;2024-01-16T14:35:26;5.93;;;3.00;;
75012;SDS011;63567;49.956;20.130;2024-01-16T14:37:51;6.50;;;3.30;;
75012;SDS011;63567;49.956;20.130;2024-01-16T14:40:17;6.88;;;3.50;;
75012;SDS011;63567;49.956;20.130;2024-01-16T14:42:48;6.53;;;3.38;;
75012;SDS011;63567;49.956;20.130;2024-01-16T14:45:16;7.32;;;2.97;;